Time;durP1;ratioP1;P1;durP2;ratioP2;P2;SDS_P1;SDS_P2;PMS_P1;PMS_P2;Temp;Humidity;BMP_temperature;BMP_pressure;BME280_temperature;BME280_humidity;BME280_pressure;Samples;Min_cycle;Max_cycle;Signal;HPM_P1;HPM_P2
2023/08/25 00:02:18;;;;;;;7.15;4.50;;;21.20;99.90;;;;;;5094864;28;20213;-74
2023/08/25 00:04:43;;;;;;;5.22;4.72;;;21.30;99.90;;;;;;5094526;28;20175;-74
2023/08/25 00:07:09;;;;;;;5.22;4.72;;;21.30;99.90;;;;;;5094481;28;20168;-73
2023/08/25 00:09:35;;;;;;;4.47;3.78;;;21.30;99.90;;;;;;5094726;28;20214;-74
2023/08/25 00:12:01;;;;;;;5.43;3.92;;;21.20;99.90;;;;;;5094683;28;20170;-74
2023/08/25 00:14:26;;;;;;;5.43;4.40;;;21.20;99.90;;;;;;5094321;28;20255;-74
2023/08/25 00:16:52;;;;;;;5.40;3.80;;;21.20;99.90;;;;;;5094588;28;20643;-75
2023/08/25 00:19:18;;;;;;;4.28;3.67;;;21.20;99.90;;;;;;5093916;28;20223;-75
2023/08/25 00:21:45;;;;;;;5.93;4.30;;;21.20;99.90;;;;;;5093149;28;20175;-75
2023/08/25 00:24:10;;;;;;;6.60;4.22;;;21.10;99.90;;;;;;5094484;28;20180;-75
2023/08/25 00:26:39;;;;;;;5.90;4.18;;;21.10;99.90;;;;;;5094287;28;20228;-75
2023/08/25 00:29:05;;;;;;;6.90;4.70;;;21.10;99.90;;;;;;5094121;28;20280;-75
2023/08/25 00:31:31;;;;;;;6.85;4.50;;;21.10;99.90;;;;;;5094355;28;20172;-75
2023/08/25 00:33:58;;;;;;;7.03;4.10;;;21.10;99.90;;;;;;5094037;28;20187;-75
2023/08/25 00:36:24;;;;;;;8.23;4.47;;;21.10;99.90;;;;;;5093814;28;20174;-75
2023/08/25 00:38:51;;;;;;;5.55;4.13;;;21.10;99.90;;;;;;5094161;28;20172;-75
2023/08/25 00:41:17;;;;;;;9.80;4.50;;;21.00;99.90;;;;;;5093947;28;20229;-75
2023/08/25 00:43:43;;;;;;;5.43;4.72;;;21.00;99.90;;;;;;5092743;28;20690;-75
2023/08/25 00:46:10;;;;;;;5.88;4.65;;;20.90;99.90;;;;;;5093702;28;20623;-76
2023/08/25 00:48:37;;;;;;;5.68;5.15;;;20.90;99.90;;;;;;5093781;28;20281;-76
2023/08/25 00:51:04;;;;;;;6.40;4.80;;;20.80;99.90;;;;;;5093464;28;20164;-75
2023/08/25 00:53:31;;;;;;;9.30;5.25;;;20.90;99.90;;;;;;5093803;28;20180;-75
2023/08/25 00:55:57;;;;;;;6.00;4.00;;;20.80;99.90;;;;;;5093558;28;20176;-74
2023/08/25 00:58:23;;;;;;;6.68;4.95;;;20.80;99.90;;;;;;5093938;28;20218;-75
2023/08/25 01:00:49;;;;;;;5.05;4.53;;;20.80;99.90;;;;;;5093512;28;20176;-73
2023/08/25 01:03:15;;;;;;;5.82;5.13;;;20.80;99.90;;;;;;5093693;28;20550;-74
2023/08/25 01:05:41;;;;;;;7.90;5.22;;;20.80;99.90;;;;;;5091797;28;20193;-75
2023/08/25 01:08:07;;;;;;;6.45;5.07;;;20.80;99.90;;;;;;5092266;28;20200;-75
2023/08/25 01:11:02;;;;;;;9.18;5.30;;;20.70;99.90;;;;;;5093404;28;20168;-73
2023/08/25 01:13:50;;;;;;;10.30;5.80;;;20.80;99.90;;;;;;5031135;28;20185;-74
2023/08/25 01:16:20;;;;;;;5.95;5.20;;;20.70;99.90;;;;;;5031083;28;20668;-75
2023/08/25 01:18:45;;;;;;;6.13;4.75;;;20.60;99.90;;;;;;5031014;28;20307;-75
2023/08/25 01:21:12;;;;;;;7.50;5.32;;;20.70;99.90;;;;;;5030827;28;20705;-74
2023/08/25 01:23:57;;;;;;;6.55;5.18;;;20.60;99.90;;;;;;5031285;28;20178;-73
2023/08/25 01:26:24;;;;;;;6.72;4.93;;;20.60;99.90;;;;;;5031072;28;20178;-74
2023/08/25 01:28:53;;;;;;;11.30;5.25;;;20.70;99.90;;;;;;5030843;28;20213;-74
2023/08/25 01:31:22;;;;;;;10.90;5.50;;;20.60;99.90;;;;;;5030927;28;20236;-73
2023/08/25 01:33:49;;;;;;;12.77;5.80;;;20.70;99.90;;;;;;5036489;28;20212;-73
2023/08/25 01:36:33;;;;;;;5.82;5.22;;;20.70;99.90;;;;;;5037579;28;20327;-75
2023/08/25 01:39:07;;;;;;;8.68;4.88;;;20.60;99.90;;;;;;5021116;28;20169;-73
2023/08/25 01:41:54;;;;;;;6.72;5.30;;;20.60;99.90;;;;;;5037542;28;20260;-73
2023/08/25 01:44:21;;;;;;;7.22;5.30;;;20.50;99.90;;;;;;5037384;28;20255;-73
2023/08/25 01:46:51;;;;;;;10.23;5.78;;;20.50;99.90;;;;;;5037465;28;20170;-74
2023/08/25 01:49:19;;;;;;;9.38;5.82;;;20.50;99.90;;;;;;5054093;28;20214;-75
2023/08/25 01:51:45;;;;;;;7.55;5.60;;;20.60;99.90;;;;;;5099854;28;20167;-75
2023/08/25 01:54:13;;;;;;;8.00;5.20;;;20.60;99.90;;;;;;5099513;28;20700;-75
2023/08/25 01:56:38;;;;;;;9.13;5.55;;;20.50;99.90;;;;;;5098528;28;20163;-75
2023/08/25 01:59:04;;;;;;;6.90;5.28;;;20.40;99.90;;;;;;5099717;28;20234;-75
2023/08/25 02:01:30;;;;;;;8.65;5.57;;;20.40;99.90;;;;;;5099831;28;20708;-75
2023/08/25 02:03:57;;;;;;;9.45;5.40;;;20.50;99.90;;;;;;5098001;28;20172;-74
2023/08/25 02:06:22;;;;;;;12.52;5.72;;;20.50;99.90;;;;;;5098321;28;20183;-74
2023/08/25 02:08:48;;;;;;;9.07;5.85;;;20.40;99.90;;;;;;5099404;28;20195;-75
2023/08/25 02:11:13;;;;;;;7.75;5.50;;;20.30;99.90;;;;;;5099844;28;20175;-74
2023/08/25 02:13:39;;;;;;;9.15;6.18;;;20.20;99.90;;;;;;5099789;28;20179;-74
2023/08/25 02:16:04;;;;;;;11.18;6.47;;;20.20;99.90;;;;;;5099641;28;20178;-75
2023/08/25 02:18:30;;;;;;;8.48;5.70;;;20.20;99.90;;;;;;5099165;28;20593;-74
2023/08/25 02:20:56;;;;;;;7.93;5.45;;;20.30;99.90;;;;;;5098438;28;20175;-74
2023/08/25 02:23:22;;;;;;;9.70;5.97;;;20.30;99.90;;;;;;5099611;28;20715;-74
2023/08/25 02:25:47;;;;;;;6.40;5.43;;;20.30;99.90;;;;;;5099365;28;20248;-74
2023/08/25 02:28:13;;;;;;;10.25;5.72;;;20.40;99.90;;;;;;5099638;28;20207;-74
2023/08/25 02:30:39;;;;;;;8.90;5.63;;;20.40;99.90;;;;;;5099476;28;20211;-75
2023/08/25 02:33:04;;;;;;;7.63;5.53;;;20.40;99.90;;;;;;5099399;28;20604;-74
2023/08/25 02:35:30;;;;;;;7.78;5.30;;;20.40;99.90;;;;;;5098447;28;20176;-74
2023/08/25 02:38:06;;;;;;;6.82;5.20;;;20.40;99.90;;;;;;5099366;28;20164;-74
2023/08/25 02:40:33;;;;;;;6.78;4.53;;;20.50;99.90;;;;;;5099299;28;20174;-74
2023/08/25 02:43:00;;;;;;;6.78;5.25;;;20.50;99.90;;;;;;5099310;28;20192;-74
2023/08/25 02:45:26;;;;;;;9.27;5.10;;;20.60;99.90;;;;;;5095142;28;20164;-75
2023/08/25 02:47:53;;;;;;;8.93;5.20;;;20.50;99.90;;;;;;5095803;28;20168;-74
2023/08/25 02:50:19;;;;;;;7.38;5.40;;;20.60;99.90;;;;;;5095033;28;20607;-73
2023/08/25 02:52:44;;;;;;;8.25;4.82;;;20.60;99.90;;;;;;5095972;28;20526;-74
2023/08/25 02:55:14;;;;;;;8.27;5.25;;;20.60;99.90;;;;;;5095964;28;20263;-74
2023/08/25 02:57:40;;;;;;;7.68;4.63;;;20.70;99.90;;;;;;5095924;28;20234;-74
2023/08/25 03:00:08;;;;;;;9.27;4.72;;;20.70;99.90;;;;;;5095986;28;20164;-74
2023/08/25 03:02:34;;;;;;;6.22;4.53;;;20.80;99.90;;;;;;5095627;28;20233;-74
2023/08/25 03:05:00;;;;;;;5.10;4.22;;;20.70;99.90;;;;;;5095542;28;20164;-74
2023/08/25 03:07:25;;;;;;;6.90;4.35;;;20.80;99.90;;;;;;5095466;28;20522;-74
2023/08/25 03:09:51;;;;;;;6.03;4.22;;;20.70;99.90;;;;;;5095414;28;20211;-75
2023/08/25 03:12:16;;;;;;;8.15;5.10;;;20.70;99.90;;;;;;5095732;28;20185;-74
2023/08/25 03:14:42;;;;;;;6.55;4.70;;;20.70;99.90;;;;;;5095531;28;20176;-75
2023/08/25 03:17:09;;;;;;;5.72;4.55;;;20.80;99.90;;;;;;5094914;28;20168;-75
2023/08/25 03:19:37;;;;;;;7.90;4.63;;;20.80;99.90;;;;;;5095095;28;20223;-74
2023/08/25 03:22:03;;;;;;;7.38;4.80;;;20.90;99.90;;;;;;5095638;28;20167;-74
2023/08/25 03:24:28;;;;;;;8.00;4.03;;;20.90;99.90;;;;;;5095560;28;20755;-73
2023/08/25 03:26:56;;;;;;;7.00;4.45;;;21.00;99.90;;;;;;5095523;28;20210;-74
2023/08/25 03:29:22;;;;;;;7.63;4.45;;;21.00;99.90;;;;;;5094955;28;20237;-74
2023/08/25 03:31:47;;;;;;;5.40;4.18;;;20.90;99.90;;;;;;5094851;28;20176;-73
2023/08/25 03:34:13;;;;;;;7.45;4.40;;;20.90;99.90;;;;;;5095001;28;20211;-73
2023/08/25 03:36:39;;;;;;;9.93;4.00;;;20.90;99.90;;;;;;5095069;28;20569;-74
2023/08/25 03:39:04;;;;;;;4.75;4.32;;;20.80;99.90;;;;;;5093873;28;20211;-74
2023/08/25 03:41:30;;;;;;;9.52;4.57;;;20.80;99.90;;;;;;5095089;28;20251;-74
2023/08/25 03:43:56;;;;;;;5.28;3.85;;;20.80;99.90;;;;;;5094455;28;20191;-75
2023/08/25 03:46:22;;;;;;;4.50;3.75;;;20.90;99.90;;;;;;5094854;28;20163;-73
2023/08/25 03:48:47;;;;;;;6.72;4.50;;;20.90;99.90;;;;;;5094690;28;20683;-74
2023/08/25 03:51:13;;;;;;;7.97;4.40;;;20.90;99.90;;;;;;5094689;28;20178;-74
2023/08/25 03:53:38;;;;;;;6.10;4.43;;;21.00;99.90;;;;;;5094689;28;20168;-73
2023/08/25 03:56:04;;;;;;;6.85;4.00;;;21.10;99.90;;;;;;5094159;28;20168;-74
2023/08/25 03:58:30;;;;;;;6.50;4.68;;;21.10;99.90;;;;;;5092718;28;20198;-75
2023/08/25 04:00:56;;;;;;;7.43;4.13;;;21.10;99.90;;;;;;5093301;28;20213;-74
2023/08/25 04:03:23;;;;;;;4.90;4.28;;;21.10;99.90;;;;;;5094628;28;20616;-75
2023/08/25 04:05:48;;;;;;;5.50;4.70;;;21.10;99.90;;;;;;5094226;28;20183;-75
2023/08/25 04:08:14;;;;;;;10.00;4.88;;;21.10;99.90;;;;;;5094367;28;20203;-75
2023/08/25 04:10:43;;;;;;;6.32;5.25;;;21.10;99.90;;;;;;5094439;28;20175;-75
2023/08/25 04:13:09;;;;;;;8.05;4.65;;;21.20;99.90;;;;;;5094051;28;20262;-74
2023/08/25 04:15:36;;;;;;;6.47;5.32;;;21.20;99.90;;;;;;5094411;28;20206;-74
2023/08/25 04:18:02;;;;;;;6.90;4.85;;;21.20;99.90;;;;;;5093675;28;20212;-74
2023/08/25 04:20:27;;;;;;;8.43;5.35;;;21.30;99.90;;;;;;5094049;28;20176;-75
2023/08/25 04:22:53;;;;;;;5.72;5.18;;;21.30;99.90;;;;;;5094215;28;20630;-74
2023/08/25 04:25:18;;;;;;;8.85;5.13;;;21.20;99.90;;;;;;5093889;28;20183;-73
2023/08/25 04:27:44;;;;;;;11.68;5.82;;;21.10;99.90;;;;;;5092368;28;20655;-74
2023/08/25 04:30:10;;;;;;;8.35;5.97;;;21.10;99.90;;;;;;5093485;28;20635;-74
2023/08/25 04:32:36;;;;;;;10.57;5.40;;;21.10;99.90;;;;;;5093562;28;20168;-74
2023/08/25 04:35:03;;;;;;;10.57;5.15;;;21.00;99.90;;;;;;5093988;28;20572;-74
2023/08/25 04:37:29;;;;;;;9.18;5.60;;;20.90;99.90;;;;;;5094303;28;20155;-74
2023/08/25 04:39:55;;;;;;;7.05;5.65;;;20.80;99.90;;;;;;5092649;28;20267;-74
2023/08/25 04:42:22;;;;;;;8.70;5.10;;;20.90;99.90;;;;;;5093455;28;20168;-75
2023/08/25 04:44:48;;;;;;;7.72;5.97;;;21.00;99.90;;;;;;5093346;28;20262;-74
2023/08/25 04:47:15;;;;;;;9.32;6.00;;;21.10;99.90;;;;;;5093360;28;20156;-75
2023/08/25 04:49:41;;;;;;;9.43;5.97;;;21.10;99.90;;;;;;5093685;28;20210;-75
2023/08/25 04:52:07;;;;;;;7.75;6.40;;;21.20;99.90;;;;;;5091908;28;20254;-75
2023/08/25 04:54:32;;;;;;;10.65;5.90;;;21.10;99.90;;;;;;5093431;28;20199;-74
2023/08/25 04:56:58;;;;;;;13.00;6.13;;;21.00;99.90;;;;;;5093119;28;20203;-74
2023/08/25 04:59:24;;;;;;;8.55;6.05;;;21.10;99.90;;;;;;5093364;28;20176;-73
2023/08/25 05:01:50;;;;;;;9.35;6.20;;;21.20;99.90;;;;;;5093546;28;20247;-74
2023/08/25 05:04:15;;;;;;;13.27;6.20;;;21.20;99.90;;;;;;5093083;28;20256;-74
2023/08/25 05:06:41;;;;;;;9.68;6.28;;;21.10;99.90;;;;;;5092669;28;20184;-74
2023/08/25 05:09:06;;;;;;;10.88;5.82;;;21.10;99.90;;;;;;5092998;28;20234;-75
2023/08/25 05:11:34;;;;;;;10.60;6.28;;;21.20;99.90;;;;;;5092792;28;20168;-74
2023/08/25 05:14:00;;;;;;;11.02;6.60;;;21.30;99.90;;;;;;5091907;28;20263;-74
2023/08/25 05:16:26;;;;;;;10.70;6.00;;;21.30;99.90;;;;;;5092952;28;20264;-74
2023/08/25 05:18:51;;;;;;;8.25;6.32;;;21.40;99.90;;;;;;5092694;28;20227;-74
2023/08/25 05:21:17;;;;;;;10.90;6.53;;;21.50;99.90;;;;;;5093132;28;20175;-74
2023/08/25 05:23:46;;;;;;;10.93;7.00;;;21.70;99.90;;;;;;5093180;28;20168;-74
2023/08/25 05:26:15;;;;;;;10.32;7.53;;;21.70;99.90;;;;;;5092495;28;20221;-73
2023/08/25 05:28:41;;;;;;;10.50;7.20;;;21.50;99.90;;;;;;5093096;28;20199;-73
2023/08/25 05:31:08;;;;;;;13.00;7.13;;;21.30;99.90;;;;;;5092531;28;20170;-73
2023/08/25 05:33:35;;;;;;;16.08;7.65;;;21.10;99.90;;;;;;5092826;28;20163;-73
2023/08/25 05:36:00;;;;;;;15.05;8.43;;;21.00;99.90;;;;;;5092905;28;20163;-73
2023/08/25 05:38:26;;;;;;;19.77;9.93;;;20.80;99.90;;;;;;5093098;28;20204;-74
2023/08/25 05:40:52;;;;;;;17.60;9.43;;;20.70;99.90;;;;;;5092373;28;20176;-74
2023/08/25 05:43:17;;;;;;;10.80;8.68;;;20.40;99.90;;;;;;5092280;28;20215;-77
2023/08/25 05:45:43;;;;;;;13.95;9.13;;;20.20;99.90;;;;;;5092419;28;20168;-74
2023/08/25 05:48:08;;;;;;;15.93;9.00;;;20.10;99.90;;;;;;5092766;28;20663;-75
2023/08/25 05:50:35;;;;;;;14.20;9.93;;;20.10;99.90;;;;;;5092765;28;20256;-75
2023/08/25 05:53:01;;;;;;;14.93;9.75;;;20.10;99.90;;;;;;5092652;28;20592;-75
2023/08/25 05:55:27;;;;;;;16.95;10.95;;;19.90;99.90;;;;;;5092328;28;20267;-76
2023/08/25 05:57:52;;;;;;;13.55;10.38;;;19.80;99.90;;;;;;5092347;28;20172;-75
2023/08/25 06:00:18;;;;;;;14.25;10.52;;;19.80;99.90;;;;;;5092394;28;20176;-76
2023/08/25 06:02:44;;;;;;;17.38;13.73;;;19.80;99.90;;;;;;5092047;28;20631;-76
2023/08/25 06:05:10;;;;;;;16.48;12.30;;;19.80;99.90;;;;;;5092506;28;20190;-75
2023/08/25 06:07:36;;;;;;;13.02;11.63;;;19.90;99.90;;;;;;5092573;28;20187;-76
2023/08/25 06:10:02;;;;;;;13.65;10.65;;;19.90;99.90;;;;;;5091610;28;20282;-77
2023/08/25 06:12:28;;;;;;;16.83;11.55;;;19.90;99.90;;;;;;5092239;28;20254;-75
2023/08/25 06:14:54;;;;;;;15.40;11.35;;;19.90;99.90;;;;;;5092508;28;20172;-76
2023/08/25 06:17:19;;;;;;;19.23;11.73;;;19.80;99.90;;;;;;5091938;28;20217;-75
2023/08/25 06:19:45;;;;;;;14.80;11.90;;;19.90;99.90;;;;;;5093498;28;20234;-74
2023/08/25 06:22:11;;;;;;;18.88;11.93;;;19.80;99.90;;;;;;5095994;28;20258;-75
2023/08/25 06:24:36;;;;;;;17.73;13.00;;;19.80;99.90;;;;;;5095955;28;20172;-76
2023/08/25 06:27:02;;;;;;;21.05;12.35;;;19.80;99.90;;;;;;5095942;28;20176;-76
2023/08/25 06:29:29;;;;;;;19.38;13.25;;;19.90;99.90;;;;;;5095527;28;20211;-74
2023/08/25 06:31:56;;;;;;;19.67;13.60;;;19.80;99.90;;;;;;5096030;28;20254;-77
2023/08/25 06:34:22;;;;;;;19.38;14.20;;;20.00;99.90;;;;;;5095370;28;20178;-76
2023/08/25 06:36:47;;;;;;;17.70;14.43;;;20.20;99.90;;;;;;5095813;28;20201;-74
2023/08/25 06:39:14;;;;;;;19.08;15.00;;;20.20;99.90;;;;;;5094142;28;20214;-75
2023/08/25 06:41:40;;;;;;;17.58;13.80;;;20.20;99.90;;;;;;5094058;28;20183;-75
2023/08/25 06:44:06;;;;;;;19.15;13.98;;;20.30;99.90;;;;;;5094919;28;20274;-75
2023/08/25 06:46:31;;;;;;;16.60;14.55;;;20.60;99.90;;;;;;5095563;28;20176;-76
2023/08/25 06:48:57;;;;;;;18.08;14.05;;;20.60;99.90;;;;;;5095585;28;20257;-75
2023/08/25 06:51:23;;;;;;;15.35;13.82;;;20.60;99.90;;;;;;5096067;28;20639;-75
2023/08/25 06:53:48;;;;;;;16.08;13.55;;;20.80;99.90;;;;;;5095219;28;20180;-75
2023/08/25 06:56:14;;;;;;;23.75;18.80;;;20.90;99.90;;;;;;5095063;28;20539;-75
2023/08/25 06:58:39;;;;;;;15.95;14.27;;;21.10;99.90;;;;;;5081734;28;20271;-76
2023/08/25 07:01:05;;;;;;;15.68;13.45;;;21.00;99.90;;;;;;5079086;28;20531;-75
2023/08/25 07:03:31;;;;;;;17.33;12.95;;;20.90;99.90;;;;;;5072722;28;20177;-75
2023/08/25 07:05:58;;;;;;;14.15;12.65;;;20.70;99.90;;;;;;5083699;28;20175;-76
2023/08/25 07:08:25;;;;;;;14.80;13.27;;;20.70;99.90;;;;;;5076234;28;20204;-75
2023/08/25 07:10:51;;;;;;;15.27;13.88;;;20.70;99.90;;;;;;5074481;28;20264;-75
2023/08/25 07:13:17;;;;;;;15.70;14.10;;;20.70;99.90;;;;;;5074078;28;20214;-75
2023/08/25 07:15:42;;;;;;;16.38;14.48;;;20.80;99.90;;;;;;5081612;28;20262;-75
2023/08/25 07:18:09;;;;;;;15.05;13.65;;;20.90;99.90;;;;;;5080072;28;20220;-79
2023/08/25 07:20:36;;;;;;;15.95;14.32;;;20.90;99.90;;;;;;5085510;28;20216;-79
2023/08/25 07:23:02;;;;;;;13.25;10.82;;;20.80;99.90;;;;;;5093624;28;20571;-80
2023/08/25 07:25:27;;;;;;;15.95;14.02;;;20.90;99.90;;;;;;5086651;28;20481;-80
2023/08/25 07:27:53;;;;;;;17.25;14.63;;;20.70;99.90;;;;;;5101797;28;20168;-79
2023/08/25 07:30:19;;;;;;;16.58;14.73;;;20.60;99.90;;;;;;5082633;28;20640;-80
2023/08/25 07:32:45;;;;;;;17.05;15.07;;;20.60;99.90;;;;;;5086865;28;20270;-75
2023/08/25 07:35:10;;;;;;;18.98;15.48;;;20.40;99.90;;;;;;5084936;28;20204;-81
2023/08/25 07:37:38;;;;;;;17.02;15.23;;;20.40;99.90;;;;;;5074238;28;20184;-81
2023/08/25 07:40:07;;;;;;;14.93;13.00;;;20.40;99.90;;;;;;5090067;28;20171;-73
2023/08/25 07:42:32;;;;;;;15.15;13.70;;;20.30;99.90;;;;;;5095230;28;20217;-76
2023/08/25 07:44:58;;;;;;;15.50;13.70;;;20.10;99.90;;;;;;5095176;28;20180;-73
2023/08/25 07:47:24;;;;;;;21.08;15.98;;;20.10;99.90;;;;;;5086896;28;20186;-71
2023/08/25 07:49:49;;;;;;;17.92;15.48;;;20.20;99.90;;;;;;5083467;28;20311;-75
2023/08/25 07:52:15;;;;;;;14.73;13.32;;;20.30;99.90;;;;;;5105661;28;20622;-81
2023/08/25 07:54:40;;;;;;;18.40;13.80;;;20.30;99.90;;;;;;5076013;28;20184;-80
2023/08/25 07:57:07;;;;;;;15.23;13.82;;;20.30;99.90;;;;;;5081374;28;20630;-80
2023/08/25 07:59:33;;;;;;;17.08;14.43;;;20.30;99.90;;;;;;5071451;28;20272;-79
2023/08/25 08:01:58;;;;;;;15.27;13.68;;;20.30;99.90;;;;;;5071217;28;20299;-79
2023/08/25 08:04:24;;;;;;;16.13;13.32;;;20.40;99.90;;;;;;5071426;28;20646;-79
2023/08/25 08:06:50;;;;;;;14.93;13.35;;;20.50;99.90;;;;;;5070384;28;20180;-77
2023/08/25 08:09:17;;;;;;;14.73;13.00;;;20.60;99.90;;;;;;5072532;28;20201;-77
2023/08/25 08:11:43;;;;;;;16.65;13.73;;;20.60;99.90;;;;;;5072103;28;20262;-78
2023/08/25 08:14:09;;;;;;;17.10;13.88;;;20.60;99.90;;;;;;5072409;28;20569;-78
2023/08/25 08:16:35;;;;;;;17.63;15.13;;;20.70;99.90;;;;;;5072843;28;20256;-78
2023/08/25 08:19:02;;;;;;;16.73;14.48;;;20.70;99.90;;;;;;5072255;28;20228;-79
2023/08/25 08:21:28;;;;;;;17.60;14.07;;;20.70;99.90;;;;;;5072171;28;20171;-76
2023/08/25 08:23:53;;;;;;;16.70;14.95;;;20.80;99.90;;;;;;5072364;28;20165;-78
2023/08/25 08:26:19;;;;;;;18.88;15.70;;;20.90;99.90;;;;;;5070252;28;20165;-77
2023/08/25 08:28:44;;;;;;;19.83;17.52;;;21.00;99.90;;;;;;5071806;28;20212;-76
2023/08/25 08:31:17;;;;;;;19.55;17.20;;;21.10;99.90;;;;;;5073855;28;20172;-76
2023/08/25 08:33:43;;;;;;;20.23;17.40;;;21.20;99.90;;;;;;5072445;28;20168;-77
2023/08/25 08:36:09;;;;;;;19.92;17.67;;;21.20;99.90;;;;;;5072211;28;20180;-77
2023/08/25 08:38:35;;;;;;;23.65;18.10;;;21.10;99.90;;;;;;5073697;28;20176;-78
2023/08/25 08:41:01;;;;;;;20.67;18.10;;;21.30;99.90;;;;;;5073222;28;20199;-77
2023/08/25 08:43:32;;;;;;;19.55;17.50;;;21.40;99.90;;;;;;5072497;28;20195;-79
2023/08/25 08:45:59;;;;;;;21.38;16.88;;;21.70;99.90;;;;;;5073480;28;20180;-79
2023/08/25 08:48:25;;;;;;;16.75;14.98;;;21.70;99.90;;;;;;5072620;28;20190;-79
2023/08/25 08:50:52;;;;;;;19.08;15.13;;;21.80;99.90;;;;;;5073186;28;20165;-78
2023/08/25 08:53:18;;;;;;;18.10;15.80;;;22.20;99.90;;;;;;5073428;28;20195;-77
2023/08/25 08:55:46;;;;;;;21.98;15.68;;;22.50;99.90;;;;;;5072823;28;20192;-78
2023/08/25 08:58:15;;;;;;;16.08;14.48;;;22.90;99.90;;;;;;5073529;28;20263;-78
2023/08/25 09:00:41;;;;;;;16.25;14.52;;;23.10;99.90;;;;;;5072486;28;20188;-78
2023/08/25 09:03:11;;;;;;;17.13;15.45;;;23.30;99.90;;;;;;5072515;28;20168;-77
2023/08/25 09:05:39;;;;;;;16.58;14.65;;;23.40;99.90;;;;;;5073247;28;20173;-77
2023/08/25 09:08:07;;;;;;;16.58;14.98;;;23.40;99.90;;;;;;5073006;28;20191;-77
2023/08/25 09:10:33;;;;;;;15.30;13.85;;;23.50;99.90;;;;;;5072624;28;20172;-78
2023/08/25 09:12:59;;;;;;;16.00;14.30;;;23.70;99.90;;;;;;5072544;28;20501;-77
2023/08/25 09:15:30;;;;;;;18.75;14.98;;;23.50;99.90;;;;;;5071424;28;20640;-79
2023/08/25 09:18:06;;;;;;;16.88;15.20;;;23.70;99.90;;;;;;5070580;28;20273;-77
2023/08/25 09:20:33;;;;;;;17.55;15.70;;;23.40;99.90;;;;;;5072790;28;20172;-78
2023/08/25 09:23:00;;;;;;;17.75;16.15;;;23.40;99.90;;;;;;5072755;28;20496;-78
2023/08/25 09:25:26;;;;;;;18.48;16.58;;;23.60;99.90;;;;;;5071474;28;20173;-78
2023/08/25 09:27:57;;;;;;;20.90;16.30;;;23.50;99.90;;;;;;5072423;28;20180;-78
2023/08/25 09:30:35;;;;;;;17.98;16.27;;;23.30;99.90;;;;;;5072538;28;20221;-78
2023/08/25 09:33:07;;;;;;;21.30;19.20;;;23.40;99.90;;;;;;5072100;28;20172;-78
2023/08/25 09:35:34;;;;;;;20.50;18.02;;;23.30;99.90;;;;;;5071472;28;20562;-79
2023/08/25 09:37:59;;;;;;;18.52;16.73;;;23.00;99.90;;;;;;5073100;28;20173;-78
2023/08/25 09:40:26;;;;;;;19.83;17.70;;;22.90;99.90;;;;;;5072674;28;20251;-78
2023/08/25 09:43:03;;;;;;;19.00;17.20;;;22.70;99.90;;;;;;5071392;28;20644;-78
2023/08/25 09:45:31;;;;;;;21.90;19.67;;;22.20;99.90;;;;;;5072572;28;20640;-78
2023/08/25 09:48:16;;;;;;;20.35;18.25;;;22.00;99.90;;;;;;5072284;28;20177;-77
2023/08/25 09:50:43;;;;;;;21.08;18.92;;;21.90;99.90;;;;;;5072903;28;20228;-79
2023/08/25 09:53:12;;;;;;;22.20;19.77;;;22.00;99.90;;;;;;5072743;28;20195;-79
2023/08/25 09:55:39;;;;;;;22.58;20.23;;;22.00;99.90;;;;;;5076357;28;20176;-79
2023/08/25 09:58:06;;;;;;;23.25;20.80;;;22.00;99.90;;;;;;5076335;28;20188;-78
2023/08/25 10:00:37;;;;;;;27.80;22.98;;;22.10;99.90;;;;;;5076499;28;20251;-80
2023/08/25 10:03:08;;;;;;;26.63;22.30;;;22.20;99.90;;;;;;5076235;28;20271;-80
2023/08/25 10:05:36;;;;;;;24.92;22.23;;;22.30;99.90;;;;;;5076490;28;20157;-81
2023/08/25 10:08:02;;;;;;;25.48;22.77;;;22.30;99.90;;;;;;5078366;28;20584;-81
2023/08/25 10:10:32;;;;;;;29.08;25.98;;;22.30;99.90;;;;;;5093398;28;20224;-82
2023/08/25 10:12:59;;;;;;;32.15;26.35;;;22.20;99.90;;;;;;5096499;28;20172;-82
2023/08/25 10:15:30;;;;;;;35.40;26.67;;;22.10;99.90;;;;;;5095916;28;20172;-80
2023/08/25 10:18:07;;;;;;;37.35;28.70;;;22.10;99.90;;;;;;5096069;28;20242;-81
2023/08/25 10:20:37;;;;;;;35.13;28.73;;;22.00;99.90;;;;;;5096817;28;20182;-81
2023/08/25 10:23:08;;;;;;;39.60;31.63;;;22.00;99.90;;;;;;5096045;28;20160;-82
2023/08/25 10:25:36;;;;;;;45.17;34.55;;;22.00;99.90;;;;;;5094969;28;20657;-82
2023/08/25 10:28:05;;;;;;;46.83;34.45;;;22.00;99.90;;;;;;5096216;28;20182;-82
2023/08/25 10:30:32;;;;;;;48.13;34.05;;;22.00;99.90;;;;;;5096117;28;20182;-80
2023/08/25 10:33:11;;;;;;;48.80;35.25;;;22.10;99.90;;;;;;5094591;28;20168;-81
2023/08/25 10:35:48;;;;;;;51.47;37.42;;;22.10;99.90;;;;;;5096304;28;20170;-80
2023/08/25 10:38:19;;;;;;;48.63;37.75;;;22.00;99.90;;;;;;5095116;28;20194;-79
2023/08/25 10:41:11;;;;;;;47.28;36.80;;;21.90;99.90;;;;;;5095198;28;20655;-80
2023/08/25 10:43:37;;;;;;;52.65;37.15;;;21.70;99.90;;;;;;5094165;28;20225;-79
2023/08/25 10:46:10;;;;;;;52.63;37.97;;;21.50;99.90;;;;;;5095575;28;20179;-82
2023/08/25 10:48:40;;;;;;;48.22;37.45;;;21.50;99.90;;;;;;5095525;28;20195;-81
2023/08/25 10:51:07;;;;;;;50.45;36.45;;;21.30;99.90;;;;;;5095401;28;20176;-82
2023/08/25 10:53:37;;;;;;;51.58;37.55;;;21.20;99.90;;;;;;5094757;28;20626;-80
2023/08/25 10:56:22;;;;;;;44.78;34.80;;;21.00;99.90;;;;;;5095317;28;20534;-80
2023/08/25 10:59:04;;;;;;;49.55;35.67;;;20.90;99.90;;;;;;5095457;28;20168;-79
2023/08/25 11:01:42;;;;;;;52.78;37.38;;;20.90;99.90;;;;;;5104429;28;20175;-81
2023/08/25 11:04:13;;;;;;;45.67;31.70;;;21.00;99.90;;;;;;5100495;28;20176;-82
2023/08/25 11:06:46;;;;;;;47.90;33.50;;;20.90;99.90;;;;;;5099028;28;20167;-81
2023/08/25 11:09:18;;;;;;;46.05;34.20;;;20.90;99.90;;;;;;5111935;28;20200;-82
2023/08/25 11:11:47;;;;;;;43.75;31.65;;;21.00;99.90;;;;;;5105772;28;20600;-82
2023/08/25 11:14:13;;;;;;;37.67;29.77;;;21.40;99.90;;;;;;5109564;28;20168;-83
2023/08/25 11:16:41;;;;;;;31.05;25.83;;;21.60;99.90;;;;;;5111096;28;20252;-83
2023/08/25 11:19:10;;;;;;;32.72;25.60;;;21.60;99.90;;;;;;5113653;28;20220;-82
2023/08/25 11:21:36;;;;;;;31.35;25.55;;;21.70;99.90;;;;;;5110105;28;20670;-82
2023/08/25 11:24:02;;;;;;;33.65;26.88;;;21.80;99.90;;;;;;5107448;28;20175;-81
2023/08/25 11:26:28;;;;;;;28.92;24.20;;;22.10;99.90;;;;;;5106802;28;20172;-81
2023/08/25 11:28:54;;;;;;;36.22;26.73;;;21.90;99.90;;;;;;5104767;28;20215;-81
2023/08/25 11:31:23;;;;;;;36.10;27.05;;;22.30;99.90;;;;;;5100380;28;20175;-80
2023/08/25 11:33:51;;;;;;;36.95;27.23;;;22.40;99.90;;;;;;5095419;28;20172;-79
2023/08/25 11:36:17;;;;;;;36.10;27.20;;;22.50;99.90;;;;;;5096459;28;20164;-78
2023/08/25 11:38:48;;;;;;;32.85;26.38;;;22.70;99.90;;;;;;5077468;28;20647;-74
2023/08/25 11:41:15;;;;;;;33.10;26.65;;;23.20;99.90;;;;;;5087200;28;20204;-78
2023/08/25 11:43:41;;;;;;;29.30;24.70;;;24.00;99.90;;;;;;5077744;28;20219;-77
2023/08/25 11:46:09;;;;;;;31.92;26.00;;;24.40;99.90;;;;;;5090679;28;20555;-75
2023/08/25 11:48:35;;;;;;;33.58;26.75;;;24.20;99.90;;;;;;5082984;28;20329;-75
2023/08/25 11:51:01;;;;;;;32.28;28.33;;;24.50;99.90;;;;;;5083643;28;20196;-73
2023/08/25 11:53:27;;;;;;;35.53;30.58;;;25.20;99.90;;;;;;5107532;28;20182;-73
2023/08/25 11:55:58;;;;;;;35.67;28.58;;;25.30;99.90;;;;;;5109530;28;20585;-74
2023/08/25 11:58:32;;;;;;;36.13;30.05;;;25.10;99.90;;;;;;5097586;28;20176;-74
2023/08/25 12:01:05;;;;;;;36.13;30.83;;;25.20;99.90;;;;;;5090947;28;20646;-74
2023/08/25 12:03:30;;;;;;;41.70;31.80;;;24.90;99.90;;;;;;5095587;28;20177;-77
2023/08/25 12:05:56;;;;;;;38.75;31.58;;;25.20;99.90;;;;;;5108608;28;20183;-76
2023/08/25 12:08:24;;;;;;;35.42;29.95;;;25.40;99.90;;;;;;5100475;28;20211;-75
2023/08/25 12:10:53;;;;;;;38.85;30.33;;;25.40;99.90;;;;;;5100778;28;20175;-74
2023/08/25 12:13:26;;;;;;;38.13;31.15;;;25.20;99.90;;;;;;5099882;28;20233;-75
2023/08/25 12:15:53;;;;;;;36.95;30.55;;;24.70;99.90;;;;;;5083039;28;20249;-76
2023/08/25 12:18:20;;;;;;;40.45;29.27;;;24.40;99.90;;;;;;5087921;28;20220;-73
2023/08/25 12:20:46;;;;;;;38.78;30.67;;;24.30;99.90;;;;;;5084106;28;20191;-77
2023/08/25 12:23:13;;;;;;;44.03;32.83;;;24.40;99.90;;;;;;5074134;28;20292;-73
2023/08/25 12:25:43;;;;;;;40.10;32.30;;;24.40;99.90;;;;;;5108273;28;20175;-74
2023/08/25 12:28:10;;;;;;;42.90;33.15;;;24.50;99.90;;;;;;5098509;28;20258;-75
2023/08/25 12:30:36;;;;;;;40.05;32.45;;;24.90;99.90;;;;;;5102106;28;20325;-75
2023/08/25 12:33:02;;;;;;;42.92;34.47;;;25.10;99.90;;;;;;5088188;28;20270;-75
2023/08/25 12:35:27;;;;;;;39.28;32.38;;;25.10;99.90;;;;;;5094635;28;20188;-74
2023/08/25 12:37:53;;;;;;;39.63;33.35;;;25.10;99.90;;;;;;5082048;28;20293;-74